DAUG/GHA METAR and TAF weather

Enter ICAO airport designator
Station Type Date Time Source
DAUG METAR 2018/01/22 11:00 UTC NOAA

DAUG 221100Z 00000KT CAVOK 20/03 Q1027


Station Type Date Time Source
DAUG Decoded METAR 2018/01/22 11:00 UTC NOAA

Ghardaia, Algeria (DAUG) 32-23N 003-49E 450M
Jan 22, 2018 - 06:00 AM EST / 2018.01.22 1100 UTC
Wind: Calm:0
Visibility: greater than 7 mile(s):0
Temperature: 68 F (20 C)
Dew Point: 37 F (3 C)
Relative Humidity: 32%
Pressure (altimeter): 30.33 in. Hg (1027 hPa)
ob: DAUG 221100Z 00000KT CAVOK 20/03 Q1027
cycle: 11

Station Type Date Time Source
DAUG TAF 2018/01/22 12:46 UTC NOAA

TAF DAUG 221100Z 2212/2312 VRB02KT CAVOK


Example: see airport list